CKS295 CYHM-KCVG
Flight info
| Callsign | CKS295 |
|---|---|
| Flight time | 1h 1m |
| Altitude | 34000 |
| Route | GGUCE DCT UKATS TIGRR4 |
| Aircraft | B77L/H-SDE1E2E3FGHIJ2J3J4J5M1RWXY/LB1D1 |
Departure
| Time | 2026-05-04 22:33 |
|---|---|
| Airport | John C. Munro Hamilton International Airport (CYHM) |
Arrival
| Time | 2026-05-04 23:35 |
|---|---|
| Airport | Cincinnati Northern Kentucky International Airport (KCVG) |
| Time | Latitude | Longitude | Altitude | Speed | Heading |
|---|---|---|---|---|---|
| 2026-05-04 22:05 | 43.16560 | -79.93068 | 782 ft | 0 kts | 197° |
| 2026-05-04 22:21 | 43.16580 | -79.93060 | 782 ft | 4 kts | 199° |
| 2026-05-04 22:22 | 43.16602 | -79.93051 | 782 ft | 4 kts | 180° |
| 2026-05-04 22:22 | 43.16619 | -79.93055 | 782 ft | 4 kts | 131° |
| 2026-05-04 22:22 | 43.16629 | -79.93082 | 782 ft | 4 kts | 102° |
| 2026-05-04 22:22 | 43.16634 | -79.93110 | 782 ft | 1 kts | 107° |
| 2026-05-04 22:23 | 43.16635 | -79.93115 | 782 ft | 0 kts | 107° |
| 2026-05-04 22:25 | 43.16634 | -79.93113 | 782 ft | 2 kts | 107° |
| 2026-05-04 22:25 | 43.16616 | -79.93032 | 782 ft | 15 kts | 107° |
| 2026-05-04 22:25 | 43.16583 | -79.92887 | 783 ft | 16 kts | 107° |
| 2026-05-04 22:25 | 43.16550 | -79.92742 | 784 ft | 16 kts | 108° |
| 2026-05-04 22:26 | 43.16518 | -79.92597 | 785 ft | 16 kts | 94° |
| 2026-05-04 22:26 | 43.16593 | -79.92506 | 787 ft | 16 kts | 1° |
| 2026-05-04 22:26 | 43.16667 | -79.92552 | 786 ft | 10 kts | 331° |
| 2026-05-04 22:26 | 43.16691 | -79.92570 | 786 ft | 1 kts | 331° |
| 2026-05-04 22:27 | 43.16700 | -79.92577 | 786 ft | 0 kts | 331° |
| 2026-05-04 22:28 | 43.16701 | -79.92578 | 786 ft | 2 kts | 330° |
| 2026-05-04 22:29 | 43.16744 | -79.92611 | 785 ft | 12 kts | 330° |
| 2026-05-04 22:29 | 43.16824 | -79.92675 | 782 ft | 15 kts | 329° |
| 2026-05-04 22:29 | 43.16920 | -79.92751 | 779 ft | 17 kts | 330° |
| 2026-05-04 22:29 | 43.17019 | -79.92830 | 777 ft | 14 kts | 329° |
| 2026-05-04 22:30 | 43.17108 | -79.92792 | 776 ft | 16 kts | 44° |
| 2026-05-04 22:30 | 43.17187 | -79.92671 | 778 ft | 17 kts | 49° |
| 2026-05-04 22:30 | 43.17266 | -79.92548 | 779 ft | 17 kts | 49° |
| 2026-05-04 22:30 | 43.17344 | -79.92426 | 779 ft | 17 kts | 48° |
| 2026-05-04 22:31 | 43.17374 | -79.92282 | 779 ft | 17 kts | 104° |
| 2026-05-04 22:31 | 43.17336 | -79.92127 | 777 ft | 18 kts | 107° |
| 2026-05-04 22:31 | 43.17298 | -79.91962 | 776 ft | 18 kts | 108° |
| 2026-05-04 22:31 | 43.17242 | -79.91833 | 779 ft | 15 kts | 136° |
| 2026-05-04 22:32 | 43.17246 | -79.91760 | 779 ft | 5 kts | 5° |
| 2026-05-04 22:32 | 43.17260 | -79.91786 | 779 ft | 0 kts | 289° |
| 2026-05-04 22:32 | 43.17261 | -79.91789 | 779 ft | 1 kts | 289° |
| 2026-05-04 22:32 | 43.17264 | -79.91800 | 779 ft | 5 kts | 289° |
| 2026-05-04 22:33 | 43.17324 | -79.92060 | 776 ft | 63 kts | 287° |
| 2026-05-04 22:33 | 43.17528 | -79.92957 | 784 ft | 132 kts | 287° |
| 2026-05-04 22:33 | 43.17869 | -79.94378 | 930 ft | 168 kts | 277° |
| 2026-05-04 22:33 | 43.18237 | -79.95915 | 1504 ft | 172 kts | 279° |
| 2026-05-04 22:34 | 43.18286 | -79.97398 | 2335 ft | 145 kts | 241° |
| 2026-05-04 22:34 | 43.17796 | -79.98606 | 2952 ft | 150 kts | 243° |
| 2026-05-04 22:34 | 43.17303 | -80.00007 | 3199 ft | 176 kts | 238° |
| 2026-05-04 22:34 | 43.16553 | -80.01504 | 3447 ft | 207 kts | 236° |
| 2026-05-04 22:35 | 43.15662 | -80.03201 | 3903 ft | 226 kts | 235° |
| 2026-05-04 22:35 | 43.14734 | -80.04959 | 4796 ft | 231 kts | 236° |
| 2026-05-04 22:35 | 43.13783 | -80.06768 | 5627 ft | 237 kts | 236° |
| 2026-05-04 22:35 | 43.12812 | -80.08618 | 6484 ft | 241 kts | 236° |
| 2026-05-04 22:36 | 43.11830 | -80.10493 | 7352 ft | 244 kts | 237° |
| 2026-05-04 22:36 | 43.10839 | -80.12394 | 8209 ft | 247 kts | 237° |
| 2026-05-04 22:36 | 43.09833 | -80.14330 | 9059 ft | 252 kts | 237° |
| 2026-05-04 22:36 | 43.08812 | -80.16298 | 9872 ft | 256 kts | 238° |
| 2026-05-04 22:37 | 43.07766 | -80.18317 | 10501 ft | 268 kts | 238° |
| 2026-05-04 22:37 | 43.06637 | -80.20501 | 10733 ft | 295 kts | 237° |
| 2026-05-04 22:37 | 43.05395 | -80.22904 | 10941 ft | 323 kts | 237° |
| 2026-05-04 22:37 | 43.04051 | -80.25499 | 11434 ft | 341 kts | 237° |
| 2026-05-04 22:38 | 43.02653 | -80.28187 | 12250 ft | 352 kts | 237° |
| 2026-05-04 22:38 | 43.01219 | -80.30943 | 13157 ft | 359 kts | 237° |
| 2026-05-04 22:38 | 42.99757 | -80.33750 | 14067 ft | 365 kts | 237° |
| 2026-05-04 22:38 | 42.98278 | -80.36588 | 14990 ft | 368 kts | 237° |
| 2026-05-04 22:39 | 42.96785 | -80.39453 | 15900 ft | 373 kts | 237° |
| 2026-05-04 22:39 | 42.95273 | -80.42351 | 16786 ft | 377 kts | 237° |
| 2026-05-04 22:39 | 42.93741 | -80.45286 | 17661 ft | 382 kts | 237° |
| 2026-05-04 22:39 | 42.92189 | -80.48257 | 18445 ft | 387 kts | 237° |
| 2026-05-04 22:40 | 42.90619 | -80.51259 | 19198 ft | 391 kts | 238° |
| 2026-05-04 22:40 | 42.89031 | -80.54293 | 19945 ft | 395 kts | 238° |
| 2026-05-04 22:40 | 42.87427 | -80.57357 | 20676 ft | 399 kts | 238° |
| 2026-05-04 22:40 | 42.85801 | -80.60458 | 21373 ft | 404 kts | 238° |
| 2026-05-04 22:41 | 42.84155 | -80.63592 | 22093 ft | 409 kts | 238° |
| 2026-05-04 22:41 | 42.82492 | -80.66757 | 22796 ft | 413 kts | 238° |
| 2026-05-04 22:41 | 42.80810 | -80.69955 | 23457 ft | 418 kts | 238° |
| 2026-05-04 22:41 | 42.79106 | -80.73190 | 24016 ft | 422 kts | 238° |
| 2026-05-04 22:42 | 42.77387 | -80.76452 | 24599 ft | 426 kts | 238° |
| 2026-05-04 22:42 | 42.75652 | -80.79738 | 25194 ft | 429 kts | 238° |
| 2026-05-04 22:42 | 42.73926 | -80.83004 | 25764 ft | 433 kts | 238° |
| 2026-05-04 22:42 | 42.72025 | -80.86221 | 26291 ft | 442 kts | 231° |
| 2026-05-04 22:43 | 42.69744 | -80.89081 | 26827 ft | 451 kts | 224° |
| 2026-05-04 22:43 | 42.67191 | -80.91616 | 27363 ft | 459 kts | 217° |
| 2026-05-04 22:43 | 42.64375 | -80.93741 | 27874 ft | 466 kts | 212° |
| 2026-05-04 22:43 | 42.61479 | -80.95752 | 28370 ft | 470 kts | 212° |
| 2026-05-04 22:44 | 42.58543 | -80.97755 | 28847 ft | 474 kts | 212° |
| 2026-05-04 22:44 | 42.55591 | -80.99764 | 29381 ft | 475 kts | 212° |
| 2026-05-04 22:44 | 42.52645 | -81.01778 | 30046 ft | 473 kts | 212° |
| 2026-05-04 22:44 | 42.49720 | -81.03791 | 30623 ft | 471 kts | 212° |
| 2026-05-04 22:45 | 42.46805 | -81.05809 | 31127 ft | 471 kts | 212° |
| 2026-05-04 22:45 | 42.40972 | -81.09867 | 32105 ft | 471 kts | 213° |
| 2026-05-04 22:45 | 42.38059 | -81.11894 | 32608 ft | 470 kts | 213° |
| 2026-05-04 22:46 | 42.35152 | -81.13916 | 33101 ft | 470 kts | 213° |
| 2026-05-04 22:46 | 42.32247 | -81.15933 | 33584 ft | 469 kts | 213° |
| 2026-05-04 22:46 | 42.29332 | -81.17957 | 33704 ft | 474 kts | 213° |
| 2026-05-04 22:46 | 42.26398 | -81.19991 | 33693 ft | 474 kts | 213° |
| 2026-05-04 22:47 | 42.20574 | -81.24013 | 33689 ft | 467 kts | 213° |
| 2026-05-04 22:47 | 42.14797 | -81.27996 | 33699 ft | 466 kts | 213° |
| 2026-05-04 22:48 | 42.09031 | -81.31968 | 33699 ft | 465 kts | 213° |
| 2026-05-04 22:48 | 42.03265 | -81.35931 | 33710 ft | 466 kts | 213° |
| 2026-05-04 22:49 | 41.97488 | -81.39894 | 33702 ft | 466 kts | 213° |
| 2026-05-04 22:49 | 41.91703 | -81.43852 | 33707 ft | 467 kts | 213° |
| 2026-05-04 22:50 | 41.85906 | -81.47811 | 33708 ft | 467 kts | 213° |
| 2026-05-04 22:50 | 41.80147 | -81.51736 | 33713 ft | 468 kts | 212° |
| 2026-05-04 22:51 | 41.74344 | -81.55682 | 33708 ft | 468 kts | 213° |
| 2026-05-04 22:51 | 41.68541 | -81.59620 | 33739 ft | 467 kts | 213° |
| 2026-05-04 22:52 | 41.62743 | -81.63547 | 33709 ft | 467 kts | 213° |
| 2026-05-04 22:52 | 41.56954 | -81.67460 | 33711 ft | 466 kts | 213° |
| 2026-05-04 22:53 | 41.51172 | -81.71361 | 33704 ft | 465 kts | 213° |
| 2026-05-04 22:53 | 41.45399 | -81.75247 | 33705 ft | 465 kts | 213° |
| 2026-05-04 22:54 | 41.39634 | -81.79121 | 33722 ft | 464 kts | 213° |
| 2026-05-04 22:54 | 41.34811 | -81.82355 | 33704 ft | 463 kts | 213° |
| 2026-05-04 22:55 | 41.29061 | -81.86205 | 33724 ft | 462 kts | 213° |
| 2026-05-04 22:55 | 41.23354 | -81.90018 | 33724 ft | 462 kts | 213° |
| 2026-05-04 22:56 | 41.17612 | -81.93847 | 33752 ft | 461 kts | 213° |
| 2026-05-04 22:56 | 41.11882 | -81.97660 | 33774 ft | 461 kts | 213° |
| 2026-05-04 22:57 | 41.06156 | -82.01464 | 33767 ft | 460 kts | 213° |
| 2026-05-04 22:57 | 41.00495 | -82.05211 | 33514 ft | 451 kts | 213° |
| 2026-05-04 22:58 | 40.97685 | -82.07070 | 33215 ft | 451 kts | 214° |
| 2026-05-04 22:58 | 40.94883 | -82.08925 | 32893 ft | 451 kts | 214° |
| 2026-05-04 22:58 | 40.92078 | -82.10781 | 32549 ft | 451 kts | 214° |
| 2026-05-04 22:58 | 40.89274 | -82.12633 | 32230 ft | 450 kts | 214° |
| 2026-05-04 22:59 | 40.86475 | -82.14479 | 31901 ft | 450 kts | 214° |
| 2026-05-04 22:59 | 40.83687 | -82.16315 | 31823 ft | 446 kts | 214° |
| 2026-05-04 22:59 | 40.78110 | -82.19986 | 31788 ft | 450 kts | 214° |
| 2026-05-04 23:00 | 40.72500 | -82.23672 | 31777 ft | 450 kts | 214° |
| 2026-05-04 23:00 | 40.66892 | -82.27346 | 31773 ft | 450 kts | 214° |
| 2026-05-04 23:01 | 40.61288 | -82.31011 | 31771 ft | 449 kts | 214° |
| 2026-05-04 23:01 | 40.55687 | -82.34668 | 31781 ft | 449 kts | 214° |
| 2026-05-04 23:02 | 40.50095 | -82.38312 | 31781 ft | 448 kts | 214° |
| 2026-05-04 23:02 | 40.44509 | -82.41947 | 31795 ft | 447 kts | 214° |
| 2026-05-04 23:03 | 40.38932 | -82.45568 | 31793 ft | 448 kts | 214° |
| 2026-05-04 23:03 | 40.33340 | -82.49194 | 31796 ft | 449 kts | 214° |
| 2026-05-04 23:04 | 40.27737 | -82.52818 | 31802 ft | 449 kts | 214° |
| 2026-05-04 23:04 | 40.22136 | -82.56435 | 31803 ft | 449 kts | 214° |
| 2026-05-04 23:05 | 40.16535 | -82.60052 | 31814 ft | 445 kts | 216° |
| 2026-05-04 23:05 | 40.14030 | -82.62287 | 31818 ft | 429 kts | 230° |
| 2026-05-04 23:05 | 40.12098 | -82.65184 | 31811 ft | 420 kts | 243° |
| 2026-05-04 23:06 | 40.09440 | -82.71875 | 31805 ft | 421 kts | 248° |
| 2026-05-04 23:06 | 40.06698 | -82.78680 | 31809 ft | 425 kts | 247° |
| 2026-05-04 23:07 | 40.03914 | -82.85471 | 31805 ft | 424 kts | 247° |
| 2026-05-04 23:07 | 40.01165 | -82.92157 | 31139 ft | 414 kts | 247° |
| 2026-05-04 23:08 | 39.99815 | -82.95441 | 30632 ft | 409 kts | 247° |
| 2026-05-04 23:08 | 39.98480 | -82.98690 | 30103 ft | 404 kts | 247° |
| 2026-05-04 23:08 | 39.97157 | -83.01901 | 29533 ft | 399 kts | 247° |
| 2026-05-04 23:08 | 39.95847 | -83.05066 | 28959 ft | 394 kts | 247° |
| 2026-05-04 23:09 | 39.94538 | -83.08182 | 28441 ft | 389 kts | 246° |
| 2026-05-04 23:09 | 39.93241 | -83.11255 | 27929 ft | 384 kts | 246° |
| 2026-05-04 23:09 | 39.91961 | -83.14283 | 27408 ft | 380 kts | 247° |
| 2026-05-04 23:09 | 39.90695 | -83.17282 | 26915 ft | 376 kts | 247° |
| 2026-05-04 23:10 | 39.89443 | -83.20249 | 26415 ft | 372 kts | 247° |
| 2026-05-04 23:10 | 39.88200 | -83.23192 | 25921 ft | 369 kts | 247° |
| 2026-05-04 23:10 | 39.86971 | -83.26104 | 25444 ft | 366 kts | 247° |
| 2026-05-04 23:10 | 39.85750 | -83.28993 | 24974 ft | 363 kts | 246° |
| 2026-05-04 23:11 | 39.84537 | -83.31860 | 24506 ft | 360 kts | 246° |
| 2026-05-04 23:11 | 39.83334 | -83.34704 | 24046 ft | 358 kts | 246° |
| 2026-05-04 23:11 | 39.82137 | -83.37529 | 23583 ft | 356 kts | 246° |
| 2026-05-04 23:11 | 39.80944 | -83.40339 | 23077 ft | 354 kts | 246° |
| 2026-05-04 23:12 | 39.79759 | -83.43125 | 22615 ft | 350 kts | 246° |
| 2026-05-04 23:12 | 39.78582 | -83.45892 | 22264 ft | 351 kts | 246° |
| 2026-05-04 23:12 | 39.77389 | -83.48700 | 21899 ft | 358 kts | 246° |
| 2026-05-04 23:12 | 39.76177 | -83.51549 | 21527 ft | 361 kts | 246° |
| 2026-05-04 23:13 | 39.74960 | -83.54404 | 21153 ft | 360 kts | 246° |
| 2026-05-04 23:13 | 39.73748 | -83.57240 | 20790 ft | 358 kts | 246° |
| 2026-05-04 23:13 | 39.72540 | -83.60064 | 20419 ft | 357 kts | 246° |
| 2026-05-04 23:13 | 39.71340 | -83.62872 | 20057 ft | 355 kts | 246° |
| 2026-05-04 23:14 | 39.70144 | -83.65665 | 19685 ft | 353 kts | 246° |
| 2026-05-04 23:14 | 39.68955 | -83.68444 | 19346 ft | 351 kts | 246° |
| 2026-05-04 23:14 | 39.67769 | -83.71213 | 18977 ft | 350 kts | 246° |
| 2026-05-04 23:14 | 39.66587 | -83.73971 | 18624 ft | 349 kts | 246° |
| 2026-05-04 23:15 | 39.65409 | -83.76716 | 18326 ft | 347 kts | 246° |
| 2026-05-04 23:15 | 39.64240 | -83.79435 | 18042 ft | 344 kts | 245° |
| 2026-05-04 23:15 | 39.63074 | -83.82142 | 17672 ft | 343 kts | 245° |
| 2026-05-04 23:15 | 39.61908 | -83.84844 | 17313 ft | 342 kts | 245° |
| 2026-05-04 23:16 | 39.60746 | -83.87530 | 16963 ft | 341 kts | 245° |
| 2026-05-04 23:16 | 39.59586 | -83.90207 | 16609 ft | 340 kts | 245° |
| 2026-05-04 23:16 | 39.58238 | -83.92748 | 16261 ft | 344 kts | 235° |
| 2026-05-04 23:16 | 39.56621 | -83.95044 | 15906 ft | 346 kts | 231° |
| 2026-05-04 23:17 | 39.54936 | -83.97273 | 15577 ft | 346 kts | 231° |
| 2026-05-04 23:17 | 39.53260 | -83.99501 | 15223 ft | 345 kts | 231° |
| 2026-05-04 23:17 | 39.51610 | -84.01745 | 14860 ft | 344 kts | 232° |
| 2026-05-04 23:17 | 39.49981 | -84.03999 | 14535 ft | 342 kts | 232° |
| 2026-05-04 23:18 | 39.48361 | -84.06254 | 14190 ft | 341 kts | 232° |
| 2026-05-04 23:18 | 39.46750 | -84.08496 | 13798 ft | 341 kts | 232° |
| 2026-05-04 23:18 | 39.45129 | -84.10728 | 13345 ft | 339 kts | 232° |
| 2026-05-04 23:18 | 39.43541 | -84.12905 | 12926 ft | 334 kts | 232° |
| 2026-05-04 23:19 | 39.41947 | -84.15089 | 12574 ft | 326 kts | 232° |
| 2026-05-04 23:19 | 39.40431 | -84.17163 | 12402 ft | 314 kts | 232° |
| 2026-05-04 23:19 | 39.38973 | -84.19182 | 12305 ft | 299 kts | 234° |
| 2026-05-04 23:19 | 39.37661 | -84.21173 | 12182 ft | 280 kts | 236° |
| 2026-05-04 23:20 | 39.36464 | -84.23031 | 11746 ft | 260 kts | 238° |
| 2026-05-04 23:20 | 39.35582 | -84.24968 | 11057 ft | 244 kts | 256° |
| 2026-05-04 23:20 | 39.35218 | -84.27050 | 10564 ft | 234 kts | 263° |
| 2026-05-04 23:20 | 39.34935 | -84.29133 | 10215 ft | 238 kts | 263° |
| 2026-05-04 23:21 | 39.34646 | -84.31245 | 9862 ft | 239 kts | 262° |
| 2026-05-04 23:21 | 39.34357 | -84.33357 | 9485 ft | 238 kts | 262° |
| 2026-05-04 23:21 | 39.34067 | -84.35451 | 9109 ft | 236 kts | 262° |
| 2026-05-04 23:21 | 39.33780 | -84.37521 | 8749 ft | 233 kts | 261° |
| 2026-05-04 23:22 | 39.33494 | -84.39576 | 8405 ft | 232 kts | 261° |
| 2026-05-04 23:22 | 39.33203 | -84.41622 | 8072 ft | 231 kts | 258° |
| 2026-05-04 23:22 | 39.32560 | -84.43520 | 7748 ft | 233 kts | 239° |
| 2026-05-04 23:22 | 39.31645 | -84.45271 | 7457 ft | 238 kts | 239° |
| 2026-05-04 23:23 | 39.30723 | -84.47071 | 7138 ft | 242 kts | 239° |
| 2026-05-04 23:23 | 39.29796 | -84.48880 | 6811 ft | 240 kts | 238° |
| 2026-05-04 23:23 | 39.28879 | -84.50668 | 6481 ft | 237 kts | 238° |
| 2026-05-04 23:23 | 39.27980 | -84.52417 | 6182 ft | 232 kts | 238° |
| 2026-05-04 23:24 | 39.27094 | -84.54144 | 5850 ft | 229 kts | 237° |
| 2026-05-04 23:24 | 39.26222 | -84.55841 | 5537 ft | 225 kts | 236° |
| 2026-05-04 23:24 | 39.25367 | -84.57506 | 5228 ft | 221 kts | 236° |
| 2026-05-04 23:24 | 39.24525 | -84.59144 | 4937 ft | 217 kts | 236° |
| 2026-05-04 23:25 | 39.23702 | -84.60744 | 4657 ft | 212 kts | 235° |
| 2026-05-04 23:25 | 39.22897 | -84.62310 | 4364 ft | 207 kts | 235° |
| 2026-05-04 23:25 | 39.21962 | -84.63624 | 4079 ft | 194 kts | 208° |
| 2026-05-04 23:25 | 39.20686 | -84.64109 | 4055 ft | 196 kts | 194° |
| 2026-05-04 23:26 | 39.19344 | -84.64365 | 4109 ft | 193 kts | 191° |
| 2026-05-04 23:26 | 39.18001 | -84.64555 | 3912 ft | 198 kts | 188° |
| 2026-05-04 23:26 | 39.16666 | -84.64583 | 3895 ft | 190 kts | 177° |
| 2026-05-04 23:26 | 39.15462 | -84.63824 | 3928 ft | 206 kts | 141° |
| 2026-05-04 23:27 | 39.14776 | -84.62135 | 3988 ft | 226 kts | 106° |
| 2026-05-04 23:27 | 39.14809 | -84.60073 | 3993 ft | 233 kts | 86° |
| 2026-05-04 23:27 | 39.15066 | -84.58007 | 3930 ft | 234 kts | 84° |
| 2026-05-04 23:27 | 39.15422 | -84.55979 | 3825 ft | 234 kts | 70° |
| 2026-05-04 23:28 | 39.16438 | -84.54331 | 3662 ft | 239 kts | 33° |
| 2026-05-04 23:28 | 39.17961 | -84.53630 | 3595 ft | 231 kts | 0° |
| 2026-05-04 23:28 | 39.19544 | -84.53639 | 3505 ft | 228 kts | 354° |
| 2026-05-04 23:28 | 39.21108 | -84.53882 | 3290 ft | 225 kts | 333° |
| 2026-05-04 23:29 | 39.22282 | -84.55044 | 3245 ft | 206 kts | 297° |
| 2026-05-04 23:29 | 39.22694 | -84.56722 | 3158 ft | 194 kts | 269° |
| 2026-05-04 23:29 | 39.22707 | -84.58474 | 3090 ft | 197 kts | 264° |
| 2026-05-04 23:29 | 39.22664 | -84.60231 | 3023 ft | 193 kts | 258° |
| 2026-05-04 23:30 | 39.22443 | -84.61921 | 2968 ft | 190 kts | 253° |
| 2026-05-04 23:30 | 39.21828 | -84.63365 | 2975 ft | 185 kts | 218° |
| 2026-05-04 23:30 | 39.20692 | -84.63998 | 3000 ft | 175 kts | 197° |
| 2026-05-04 23:30 | 39.19515 | -84.64278 | 2987 ft | 169 kts | 191° |
| 2026-05-04 23:31 | 39.18386 | -84.64460 | 2974 ft | 155 kts | 189° |
| 2026-05-04 23:31 | 39.17335 | -84.64570 | 2984 ft | 153 kts | 187° |
| 2026-05-04 23:31 | 39.16274 | -84.64608 | 2923 ft | 155 kts | 186° |
| 2026-05-04 23:31 | 39.15216 | -84.64620 | 2726 ft | 147 kts | 186° |
| 2026-05-04 23:32 | 39.14231 | -84.64625 | 2516 ft | 138 kts | 185° |
| 2026-05-04 23:32 | 39.13270 | -84.64625 | 2361 ft | 139 kts | 186° |
| 2026-05-04 23:32 | 39.12282 | -84.64589 | 2147 ft | 143 kts | 184° |
| 2026-05-04 23:32 | 39.11288 | -84.64606 | 1989 ft | 145 kts | 186° |
| 2026-05-04 23:33 | 39.10258 | -84.64648 | 1731 ft | 148 kts | 185° |
| 2026-05-04 23:33 | 39.09255 | -84.64658 | 1590 ft | 144 kts | 184° |
| 2026-05-04 23:33 | 39.08257 | -84.64654 | 1417 ft | 141 kts | 181° |
| 2026-05-04 23:33 | 39.07285 | -84.64644 | 1247 ft | 141 kts | 185° |
| 2026-05-04 23:34 | 39.06280 | -84.64666 | 1066 ft | 151 kts | 184° |
| 2026-05-04 23:34 | 39.05211 | -84.64668 | 900 ft | 155 kts | 184° |
| 2026-05-04 23:34 | 39.04223 | -84.64675 | 885 ft | 120 kts | 180° |
| 2026-05-04 23:34 | 39.03574 | -84.64679 | 888 ft | 67 kts | 180° |
| 2026-05-04 23:35 | 39.03234 | -84.64680 | 889 ft | 42 kts | 180° |
| 2026-05-04 23:35 | 39.03020 | -84.64687 | 886 ft | 16 kts | 207° |
| 2026-05-04 23:35 | 39.02989 | -84.64816 | 884 ft | 14 kts | 269° |
| 2026-05-04 23:35 | 39.02991 | -84.64937 | 883 ft | 13 kts | 271° |
| 2026-05-04 23:36 | 39.03037 | -84.64993 | 883 ft | 11 kts | 353° |
| 2026-05-04 23:36 | 39.03118 | -84.64995 | 883 ft | 13 kts | 359° |
| 2026-05-04 23:36 | 39.03210 | -84.64996 | 883 ft | 13 kts | 359° |
| 2026-05-04 23:36 | 39.03299 | -84.64997 | 883 ft | 13 kts | 359° |
| 2026-05-04 23:37 | 39.03389 | -84.64995 | 883 ft | 13 kts | 1° |
| 2026-05-04 23:37 | 39.03481 | -84.64993 | 883 ft | 13 kts | 1° |
| 2026-05-04 23:37 | 39.03549 | -84.64994 | 883 ft | 7 kts | 347° |
| 2026-05-04 23:37 | 39.03572 | -84.65045 | 883 ft | 7 kts | 273° |
| 2026-05-04 23:38 | 39.03573 | -84.65119 | 883 ft | 12 kts | 270° |
| 2026-05-04 23:38 | 39.03573 | -84.65265 | 883 ft | 18 kts | 270° |
| 2026-05-04 23:38 | 39.03574 | -84.65423 | 883 ft | 16 kts | 270° |
| 2026-05-04 23:38 | 39.03575 | -84.65506 | 883 ft | 4 kts | 271° |
| 2026-05-04 23:39 | 39.03595 | -84.65532 | 883 ft | 5 kts | 340° |
| 2026-05-04 23:39 | 39.03638 | -84.65538 | 883 ft | 6 kts | 358° |
| 2026-05-04 23:39 | 39.03666 | -84.65539 | 883 ft | 2 kts | 359° |
| 2026-05-04 23:39 | 39.03668 | -84.65539 | 883 ft | 0 kts | 359° |